Ringgold, Nebraska
Current Conditions -  °F | °C
As of 1:53 AM on Monday 22 Dec 2014 (Local Time) from KLBF Reporting Station
Few Clouds Few Clouds  
Wind Chill: 21°   Ceiling: Unl
Heat Index: 26°   Visibility: 10mi
Dew Point: 25°   Wind: 5mph
Humidity: 96%   Direction: 340°NNW
Pressure: 29.52"   Gusts: NA
Location:  41.5681°N, 101.06°W
Report Text: KLBF 220753Z AUTO 34004KT 10SM FEW070 FEW085 M03/M04 A2952 RMK AO2 SLP010 T10331039 $
Loading
Personal Weather Stations






























Interactive Weather Map New forecast layout! Learn more

10-Day Weather Forecast

Advertisements
Track Severe Weather on mobile